Observations for SOUTHAMPTON WX CNTR, United Kingdom (EGHI)

EGHI 220520Z VRB03KT 4000 -DZ HZ BKN006 16/15 Q1020 
EGHI 220450Z VRB03KT 4000 -DZ HZ BKN005 16/15 Q1020 
EGHI 212150Z 11001KT 8000 BKN005 16/15 Q1021
EGHI 212120Z VRB02KT 9999 FEW030 16/15 Q1021
EGHI 212050Z 14003KT 9999 FEW027 17/15 Q1021
EGHI 212020Z 15003KT 9999 FEW027 17/15 Q1021
EGHI 211950Z 14001KT 9999 FEW040 18/15 Q1021
EGHI 211920Z VRB03KT 9999 FEW040 18/16 Q1020
EGHI 211850Z VRB03KT 9999 FEW025 SCT043 19/16 Q1020 
EGHI 211820Z VRB03KT 9999 FEW025 SCT042 19/16 Q1020 
EGHI 211750Z 19005KT 150V220 9999 FEW020 BKN038 20/16 Q1020 
EGHI 211720Z 21006KT 9999 FEW025 SCT038 20/16 Q1020 
EGHI 211650Z 20006KT 9999 FEW025 SCT035 20/17 Q1020 
EGHI 211620Z 19006KT 9999 SCT030 SCT041 20/17 Q1020 
EGHI 211550Z VRB01KT 9999 FEW025 SCT040 21/17 Q1020 
EGHI 211520Z VRB03KT 9999 SCT025 SCT040 22/15 Q1020 
EGHI 211450Z VRB03KT 9999 SCT025 SCT040 22/16 Q1020 
EGHI 211420Z VRB03KT 9999 SCT020 SCT041 21/16 Q1020 
EGHI 211350Z VRB03KT 9999 SCT020 SCT041 21/17 Q1021 
EGHI 211320Z VRB01KT 9999 FEW015 BKN032 20/17 Q1021 
EGHI 211250Z VRB02KT 9999 VCSH SCT013 BKN016 19/17 Q1021
EGHI 211220Z 00000KT 9999 VCSH SCT012 BKN016 19/17 Q1021
EGHI 211150Z VRB01KT 9999 5000N -RA FEW005 SCT009 BKN015 18/17 Q1021
EGHI 211120Z VRB02KT 6000 -RA FEW005 SCT009 BKN015 18/16 Q1021  
EGHI 211050Z VRB02KT 6000 -RA FEW005 SCT009 BKN015 18/16 Q1021  
EGHI 211020Z 31004KT 280V340 9000 VCSH FEW005 SCT007 BKN012 18/16 Q1021 
EGHI 210950Z 30004KT 220V340 9000 VCSH FEW005 SCT007 BKN012 18/16 Q1021 
EGHI 210920Z 26004KT 230V300 9999 VCSH SCT007 BKN019 18/16 Q1021
EGHI 210850Z 28004KT 190V310 9000 -DZ SCT007 BKN019 18/16 Q1021 
EGHI 210820Z VRB03KT 9000 SCT007 BKN017 18/16 Q1021 
EGHI 210750Z VRB03KT 6000 SCT007 BKN017 17/16 Q1021 
EGHI 210720Z VRB03KT 6000 FEW005 SCT017 BKN027 17/16 Q1021  
EGHI 210650Z 00000KT 6000 SCT005 BKN010 16/15 Q1021 
EGHI 210620Z 00000KT 6000 SCT005 BKN020 16/15 Q1020 
EGHI 210550Z VRB01KT 6000 FEW004 BKN028 16/15 Q1020 
EGHI 210520Z VRB01KT 6000 FEW004 BKN028 16/15 Q1020 
EGHI 210450Z 25003KT 3500 SCT004 BKN007 16/15 Q1020